sensor_id;sensor_type;location;lat;lon;timestamp;P1;durP1;ratioP1;P2;durP2;ratioP2
16029;SDS011;34770;49.272;11.070;2023-06-26T00:02:11;9.68;;;6.75;;
16029;SDS011;34770;49.272;11.070;2023-06-26T00:04:37;8.20;;;6.78;;
16029;SDS011;34770;49.272;11.070;2023-06-26T00:07:02;7.47;;;6.60;;
16029;SDS011;34770;49.272;11.070;2023-06-26T00:09:29;8.10;;;7.30;;
16029;SDS011;34770;49.272;11.070;2023-06-26T00:11:57;8.98;;;7.43;;
16029;SDS011;34770;49.272;11.070;2023-06-26T00:14:22;8.00;;;7.20;;
16029;SDS011;34770;49.272;11.070;2023-06-26T00:16:47;8.93;;;7.13;;
16029;SDS011;34770;49.272;11.070;2023-06-26T00:19:16;8.05;;;6.22;;
16029;SDS011;34770;49.272;11.070;2023-06-26T00:21:42;9.48;;;6.95;;
16029;SDS011;34770;49.272;11.070;2023-06-26T00:24:11;7.55;;;6.85;;
16029;SDS011;34770;49.272;11.070;2023-06-26T00:26:37;7.82;;;6.43;;
16029;SDS011;34770;49.272;11.070;2023-06-26T00:29:03;7.72;;;6.72;;
16029;SDS011;34770;49.272;11.070;2023-06-26T00:31:28;8.10;;;6.82;;
16029;SDS011;34770;49.272;11.070;2023-06-26T00:33:53;8.15;;;7.15;;
16029;SDS011;34770;49.272;11.070;2023-06-26T00:36:19;9.48;;;7.15;;
16029;SDS011;34770;49.272;11.070;2023-06-26T00:38:44;8.02;;;6.85;;
16029;SDS011;34770;49.272;11.070;2023-06-26T00:41:10;9.40;;;6.90;;
16029;SDS011;34770;49.272;11.070;2023-06-26T00:43:37;9.55;;;7.28;;
16029;SDS011;34770;49.272;11.070;2023-06-26T00:46:03;7.30;;;6.55;;
16029;SDS011;34770;49.272;11.070;2023-06-26T00:48:30;8.05;;;7.25;;
16029;SDS011;34770;49.272;11.070;2023-06-26T00:50:56;7.80;;;6.97;;
16029;SDS011;34770;49.272;11.070;2023-06-26T00:53:21;7.63;;;6.55;;
16029;SDS011;34770;49.272;11.070;2023-06-26T00:55:47;11.50;;;7.22;;
16029;SDS011;34770;49.272;11.070;2023-06-26T00:58:12;13.18;;;7.25;;
16029;SDS011;34770;49.272;11.070;2023-06-26T01:00:38;8.63;;;7.63;;
16029;SDS011;34770;49.272;11.070;2023-06-26T01:03:04;10.52;;;7.72;;
16029;SDS011;34770;49.272;11.070;2023-06-26T01:05:29;9.45;;;7.50;;
16029;SDS011;34770;49.272;11.070;2023-06-26T01:07:55;8.13;;;6.97;;
16029;SDS011;34770;49.272;11.070;2023-06-26T01:10:23;10.25;;;7.88;;
16029;SDS011;34770;49.272;11.070;2023-06-26T01:12:48;10.18;;;7.38;;
16029;SDS011;34770;49.272;11.070;2023-06-26T01:15:14;8.27;;;7.15;;
16029;SDS011;34770;49.272;11.070;2023-06-26T01:17:40;8.63;;;7.25;;
16029;SDS011;34770;49.272;11.070;2023-06-26T01:20:10;11.02;;;8.80;;
16029;SDS011;34770;49.272;11.070;2023-06-26T01:28:03;8.18;;;7.35;;
16029;SDS011;34770;49.272;11.070;2023-06-26T01:30:30;9.25;;;7.03;;
16029;SDS011;34770;49.272;11.070;2023-06-26T01:32:58;8.27;;;7.13;;
16029;SDS011;34770;49.272;11.070;2023-06-26T01:35:24;9.40;;;7.53;;
16029;SDS011;34770;49.272;11.070;2023-06-26T01:37:51;11.70;;;7.70;;
16029;SDS011;34770;49.272;11.070;2023-06-26T01:40:16;8.18;;;7.32;;
16029;SDS011;34770;49.272;11.070;2023-06-26T01:42:42;9.65;;;7.75;;
16029;SDS011;34770;49.272;11.070;2023-06-26T01:45:10;8.63;;;7.72;;
16029;SDS011;34770;49.272;11.070;2023-06-26T01:47:37;9.10;;;7.93;;
16029;SDS011;34770;49.272;11.070;2023-06-26T01:50:06;11.05;;;7.68;;
16029;SDS011;34770;49.272;11.070;2023-06-26T01:58:19;10.77;;;8.15;;
16029;SDS011;34770;49.272;11.070;2023-06-26T02:00:46;8.80;;;7.90;;
16029;SDS011;34770;49.272;11.070;2023-06-26T02:03:12;9.32;;;8.05;;
16029;SDS011;34770;49.272;11.070;2023-06-26T02:05:37;9.18;;;7.85;;
16029;SDS011;34770;49.272;11.070;2023-06-26T02:08:03;11.20;;;8.57;;
16029;SDS011;34770;49.272;11.070;2023-06-26T02:10:28;11.98;;;8.57;;
16029;SDS011;34770;49.272;11.070;2023-06-26T02:12:54;8.52;;;7.45;;
16029;SDS011;34770;49.272;11.070;2023-06-26T02:15:20;9.68;;;7.45;;
16029;SDS011;34770;49.272;11.070;2023-06-26T02:17:48;10.20;;;8.02;;
16029;SDS011;34770;49.272;11.070;2023-06-26T02:20:16;8.80;;;7.90;;
16029;SDS011;34770;49.272;11.070;2023-06-26T02:22:42;10.52;;;8.30;;
16029;SDS011;34770;49.272;11.070;2023-06-26T02:25:08;8.55;;;7.50;;
16029;SDS011;34770;49.272;11.070;2023-06-26T02:27:35;10.65;;;8.68;;
16029;SDS011;34770;49.272;11.070;2023-06-26T02:30:00;9.30;;;7.88;;
16029;SDS011;34770;49.272;11.070;2023-06-26T02:32:25;9.23;;;7.47;;
16029;SDS011;34770;49.272;11.070;2023-06-26T02:34:51;9.63;;;7.72;;
16029;SDS011;34770;49.272;11.070;2023-06-26T02:37:19;10.25;;;8.07;;
16029;SDS011;34770;49.272;11.070;2023-06-26T02:39:45;8.63;;;7.72;;
16029;SDS011;34770;49.272;11.070;2023-06-26T02:42:10;8.77;;;7.72;;
16029;SDS011;34770;49.272;11.070;2023-06-26T02:44:36;10.38;;;8.00;;
16029;SDS011;34770;49.272;11.070;2023-06-26T02:47:04;9.02;;;7.55;;
16029;SDS011;34770;49.272;11.070;2023-06-26T02:49:29;7.97;;;7.18;;
16029;SDS011;34770;49.272;11.070;2023-06-26T02:51:55;9.35;;;7.70;;
16029;SDS011;34770;49.272;11.070;2023-06-26T02:54:20;8.68;;;7.50;;
16029;SDS011;34770;49.272;11.070;2023-06-26T02:56:45;12.02;;;7.38;;
16029;SDS011;34770;49.272;11.070;2023-06-26T02:59:11;9.43;;;7.82;;
16029;SDS011;34770;49.272;11.070;2023-06-26T03:01:36;9.35;;;8.05;;
16029;SDS011;34770;49.272;11.070;2023-06-26T03:04:02;10.23;;;7.65;;
16029;SDS011;34770;49.272;11.070;2023-06-26T03:06:27;10.63;;;8.88;;
16029;SDS011;34770;49.272;11.070;2023-06-26T03:08:52;8.88;;;7.50;;
16029;SDS011;34770;49.272;11.070;2023-06-26T03:11:18;10.68;;;8.35;;
16029;SDS011;34770;49.272;11.070;2023-06-26T03:13:44;9.20;;;7.95;;
16029;SDS011;34770;49.272;11.070;2023-06-26T03:16:09;9.70;;;8.07;;
16029;SDS011;34770;49.272;11.070;2023-06-26T03:18:35;10.20;;;8.38;;
16029;SDS011;34770;49.272;11.070;2023-06-26T03:21:03;9.30;;;7.88;;
16029;SDS011;34770;49.272;11.070;2023-06-26T03:23:29;10.63;;;8.45;;
16029;SDS011;34770;49.272;11.070;2023-06-26T03:25:54;10.23;;;8.65;;
16029;SDS011;34770;49.272;11.070;2023-06-26T03:28:19;11.43;;;8.15;;
16029;SDS011;34770;49.272;11.070;2023-06-26T03:30:45;10.60;;;7.75;;
16029;SDS011;34770;49.272;11.070;2023-06-26T03:33:10;10.88;;;8.45;;
16029;SDS011;34770;49.272;11.070;2023-06-26T03:35:36;8.90;;;7.97;;
16029;SDS011;34770;49.272;11.070;2023-06-26T03:38:03;8.73;;;7.57;;
16029;SDS011;34770;49.272;11.070;2023-06-26T03:40:28;9.00;;;8.10;;
16029;SDS011;34770;49.272;11.070;2023-06-26T03:42:54;8.32;;;7.50;;
16029;SDS011;34770;49.272;11.070;2023-06-26T03:45:20;10.63;;;7.22;;
16029;SDS011;34770;49.272;11.070;2023-06-26T03:47:45;10.52;;;8.27;;
16029;SDS011;34770;49.272;11.070;2023-06-26T03:50:16;10.45;;;8.15;;
16029;SDS011;34770;49.272;11.070;2023-06-26T03:52:42;10.32;;;7.78;;
16029;SDS011;34770;49.272;11.070;2023-06-26T03:55:07;10.98;;;7.93;;
16029;SDS011;34770;49.272;11.070;2023-06-26T03:57:34;8.73;;;7.22;;
16029;SDS011;34770;49.272;11.070;2023-06-26T03:59:59;9.13;;;7.90;;
16029;SDS011;34770;49.272;11.070;2023-06-26T04:02:25;9.32;;;7.95;;
16029;SDS011;34770;49.272;11.070;2023-06-26T04:04:50;11.90;;;7.15;;
16029;SDS011;34770;49.272;11.070;2023-06-26T04:07:17;10.98;;;8.20;;
16029;SDS011;34770;49.272;11.070;2023-06-26T04:09:42;8.57;;;7.68;;
16029;SDS011;34770;49.272;11.070;2023-06-26T04:12:07;9.75;;;7.82;;
16029;SDS011;34770;49.272;11.070;2023-06-26T04:14:33;8.32;;;7.43;;
16029;SDS011;34770;49.272;11.070;2023-06-26T04:16:59;10.02;;;7.65;;
16029;SDS011;34770;49.272;11.070;2023-06-26T04:19:26;8.23;;;7.00;;
16029;SDS011;34770;49.272;11.070;2023-06-26T04:21:52;8.48;;;7.57;;
16029;SDS011;34770;49.272;11.070;2023-06-26T04:24:17;9.98;;;7.75;;
16029;SDS011;34770;49.272;11.070;2023-06-26T04:26:42;8.80;;;7.38;;
16029;SDS011;34770;49.272;11.070;2023-06-26T04:29:10;8.70;;;7.20;;
16029;SDS011;34770;49.272;11.070;2023-06-26T04:31:36;8.23;;;7.20;;
16029;SDS011;34770;49.272;11.070;2023-06-26T04:34:01;9.82;;;7.45;;
16029;SDS011;34770;49.272;11.070;2023-06-26T04:36:26;7.85;;;6.82;;
16029;SDS011;34770;49.272;11.070;2023-06-26T04:38:54;8.18;;;6.93;;
16029;SDS011;34770;49.272;11.070;2023-06-26T04:41:20;9.25;;;7.30;;
16029;SDS011;34770;49.272;11.070;2023-06-26T04:43:46;8.20;;;6.93;;
16029;SDS011;34770;49.272;11.070;2023-06-26T04:46:11;8.60;;;7.68;;
16029;SDS011;34770;49.272;11.070;2023-06-26T04:48:36;8.40;;;7.22;;
16029;SDS011;34770;49.272;11.070;2023-06-26T04:51:02;9.85;;;7.32;;
16029;SDS011;34770;49.272;11.070;2023-06-26T04:53:27;8.07;;;6.68;;
16029;SDS011;34770;49.272;11.070;2023-06-26T04:55:53;8.68;;;6.72;;
16029;SDS011;34770;49.272;11.070;2023-06-26T04:58:18;7.72;;;6.93;;
16029;SDS011;34770;49.272;11.070;2023-06-26T05:00:45;7.68;;;6.88;;
16029;SDS011;34770;49.272;11.070;2023-06-26T05:03:11;7.55;;;6.63;;
16029;SDS011;34770;49.272;11.070;2023-06-26T05:05:38;8.27;;;6.65;;
16029;SDS011;34770;49.272;11.070;2023-06-26T05:08:22;8.57;;;6.80;;
16029;SDS011;34770;49.272;11.070;2023-06-26T05:10:51;15.20;;;7.55;;
16029;SDS011;34770;49.272;11.070;2023-06-26T05:13:23;8.90;;;6.90;;
16029;SDS011;34770;49.272;11.070;2023-06-26T05:15:48;9.52;;;6.97;;
16029;SDS011;34770;49.272;11.070;2023-06-26T05:18:14;7.95;;;7.13;;
16029;SDS011;34770;49.272;11.070;2023-06-26T05:20:42;7.63;;;6.82;;
16029;SDS011;34770;49.272;11.070;2023-06-26T05:23:11;7.13;;;6.28;;
16029;SDS011;34770;49.272;11.070;2023-06-26T05:25:37;11.27;;;7.80;;
16029;SDS011;34770;49.272;11.070;2023-06-26T05:28:06;7.93;;;6.32;;
16029;SDS011;34770;49.272;11.070;2023-06-26T05:30:35;9.98;;;6.68;;
16029;SDS011;34770;49.272;11.070;2023-06-26T05:33:00;6.75;;;6.05;;
16029;SDS011;34770;49.272;11.070;2023-06-26T05:35:29;10.95;;;6.85;;
16029;SDS011;34770;49.272;11.070;2023-06-26T05:37:56;7.88;;;6.22;;
16029;SDS011;34770;49.272;11.070;2023-06-26T05:40:22;10.35;;;6.57;;
16029;SDS011;34770;49.272;11.070;2023-06-26T05:42:48;7.45;;;6.07;;
16029;SDS011;34770;49.272;11.070;2023-06-26T05:45:13;7.15;;;6.03;;
16029;SDS011;34770;49.272;11.070;2023-06-26T05:47:39;6.72;;;6.10;;
16029;SDS011;34770;49.272;11.070;2023-06-26T05:50:05;7.35;;;6.57;;
16029;SDS011;34770;49.272;11.070;2023-06-26T05:52:33;9.63;;;7.10;;
16029;SDS011;34770;49.272;11.070;2023-06-26T05:54:59;7.28;;;5.88;;
16029;SDS011;34770;49.272;11.070;2023-06-26T05:57:25;8.02;;;6.35;;
16029;SDS011;34770;49.272;11.070;2023-06-26T05:59:52;7.18;;;6.47;;
16029;SDS011;34770;49.272;11.070;2023-06-26T06:02:18;6.68;;;6.00;;
16029;SDS011;34770;49.272;11.070;2023-06-26T06:04:43;7.32;;;6.32;;
16029;SDS011;34770;49.272;11.070;2023-06-26T06:07:09;8.80;;;6.90;;
16029;SDS011;34770;49.272;11.070;2023-06-26T06:09:34;7.50;;;6.28;;
16029;SDS011;34770;49.272;11.070;2023-06-26T06:12:02;8.40;;;6.68;;
16029;SDS011;34770;49.272;11.070;2023-06-26T06:14:29;9.38;;;7.10;;
16029;SDS011;34770;49.272;11.070;2023-06-26T06:16:55;8.45;;;6.43;;
16029;SDS011;34770;49.272;11.070;2023-06-26T06:19:21;7.47;;;6.18;;
16029;SDS011;34770;49.272;11.070;2023-06-26T06:21:47;7.20;;;5.82;;
16029;SDS011;34770;49.272;11.070;2023-06-26T06:24:12;7.18;;;6.15;;
16029;SDS011;34770;49.272;11.070;2023-06-26T06:26:37;7.05;;;6.15;;
16029;SDS011;34770;49.272;11.070;2023-06-26T06:29:03;12.52;;;6.25;;
16029;SDS011;34770;49.272;11.070;2023-06-26T06:31:29;6.65;;;5.93;;
16029;SDS011;34770;49.272;11.070;2023-06-26T06:33:54;8.63;;;5.90;;
16029;SDS011;34770;49.272;11.070;2023-06-26T06:36:20;8.05;;;6.10;;
16029;SDS011;34770;49.272;11.070;2023-06-26T06:38:45;6.90;;;6.15;;
16029;SDS011;34770;49.272;11.070;2023-06-26T06:41:11;7.10;;;6.00;;
16029;SDS011;34770;49.272;11.070;2023-06-26T06:43:37;6.78;;;5.85;;
16029;SDS011;34770;49.272;11.070;2023-06-26T06:46:03;8.13;;;6.20;;
16029;SDS011;34770;49.272;11.070;2023-06-26T06:48:29;7.10;;;6.35;;
16029;SDS011;34770;49.272;11.070;2023-06-26T06:50:57;7.85;;;5.72;;
16029;SDS011;34770;49.272;11.070;2023-06-26T06:53:22;9.10;;;5.82;;
16029;SDS011;34770;49.272;11.070;2023-06-26T06:55:51;8.75;;;6.20;;
16029;SDS011;34770;49.272;11.070;2023-06-26T06:58:16;6.60;;;5.70;;
16029;SDS011;34770;49.272;11.070;2023-06-26T07:00:44;7.20;;;5.88;;
16029;SDS011;34770;49.272;11.070;2023-06-26T07:03:09;6.63;;;5.88;;
16029;SDS011;34770;49.272;11.070;2023-06-26T07:05:35;6.95;;;5.82;;
16029;SDS011;34770;49.272;11.070;2023-06-26T07:08:01;8.73;;;5.88;;
16029;SDS011;34770;49.272;11.070;2023-06-26T07:10:26;6.05;;;5.45;;
16029;SDS011;34770;49.272;11.070;2023-06-26T07:12:51;9.52;;;5.90;;
16029;SDS011;34770;49.272;11.070;2023-06-26T07:15:17;7.43;;;5.90;;
16029;SDS011;34770;49.272;11.070;2023-06-26T07:17:42;7.00;;;6.00;;
16029;SDS011;34770;49.272;11.070;2023-06-26T07:20:07;8.07;;;5.88;;
16029;SDS011;34770;49.272;11.070;2023-06-26T07:22:35;6.90;;;6.18;;
16029;SDS011;34770;49.272;11.070;2023-06-26T07:25:01;7.25;;;6.25;;
16029;SDS011;34770;49.272;11.070;2023-06-26T07:27:28;7.85;;;5.68;;
16029;SDS011;34770;49.272;11.070;2023-06-26T07:29:53;5.53;;;4.72;;
16029;SDS011;34770;49.272;11.070;2023-06-26T07:32:18;6.63;;;5.65;;
16029;SDS011;34770;49.272;11.070;2023-06-26T07:34:45;6.18;;;5.25;;
16029;SDS011;34770;49.272;11.070;2023-06-26T07:37:10;6.03;;;5.43;;
16029;SDS011;34770;49.272;11.070;2023-06-26T07:39:35;6.10;;;5.18;;
16029;SDS011;34770;49.272;11.070;2023-06-26T07:42:01;8.35;;;5.68;;
16029;SDS011;34770;49.272;11.070;2023-06-26T07:44:26;6.47;;;5.70;;
16029;SDS011;34770;49.272;11.070;2023-06-26T07:46:52;10.60;;;5.45;;
16029;SDS011;34770;49.272;11.070;2023-06-26T07:49:17;8.07;;;5.50;;
16029;SDS011;34770;49.272;11.070;2023-06-26T07:51:43;7.97;;;6.60;;
16029;SDS011;34770;49.272;11.070;2023-06-26T07:54:08;7.88;;;5.97;;
16029;SDS011;34770;49.272;11.070;2023-06-26T07:59:26;7.43;;;6.20;;
16029;SDS011;34770;49.272;11.070;2023-06-26T08:01:53;5.95;;;5.32;;
16029;SDS011;34770;49.272;11.070;2023-06-26T08:04:20;7.13;;;6.00;;
16029;SDS011;34770;49.272;11.070;2023-06-26T08:06:50;6.05;;;5.32;;
16029;SDS011;34770;49.272;11.070;2023-06-26T08:09:18;6.93;;;5.97;;
16029;SDS011;34770;49.272;11.070;2023-06-26T08:11:45;6.30;;;5.65;;
16029;SDS011;34770;49.272;11.070;2023-06-26T08:14:11;6.50;;;5.80;;
16029;SDS011;34770;49.272;11.070;2023-06-26T08:16:38;6.60;;;5.90;;
16029;SDS011;34770;49.272;11.070;2023-06-26T08:19:05;8.25;;;5.90;;
16029;SDS011;34770;49.272;11.070;2023-06-26T08:21:30;6.82;;;6.13;;
16029;SDS011;34770;49.272;11.070;2023-06-26T08:23:55;6.97;;;5.53;;
16029;SDS011;34770;49.272;11.070;2023-06-26T08:26:21;6.38;;;5.75;;
16029;SDS011;34770;49.272;11.070;2023-06-26T08:28:50;8.30;;;6.22;;
16029;SDS011;34770;49.272;11.070;2023-06-26T08:31:17;8.48;;;6.20;;
16029;SDS011;34770;49.272;11.070;2023-06-26T08:33:46;7.32;;;6.30;;
16029;SDS011;34770;49.272;11.070;2023-06-26T08:36:15;6.82;;;5.20;;
16029;SDS011;34770;49.272;11.070;2023-06-26T08:38:48;7.65;;;5.95;;
16029;SDS011;34770;49.272;11.070;2023-06-26T08:41:14;5.93;;;5.28;;
16029;SDS011;34770;49.272;11.070;2023-06-26T08:43:39;6.68;;;5.97;;
16029;SDS011;34770;49.272;11.070;2023-06-26T08:46:05;8.73;;;6.63;;
16029;SDS011;34770;49.272;11.070;2023-06-26T08:48:31;7.13;;;6.43;;
16029;SDS011;34770;49.272;11.070;2023-06-26T08:51:00;6.95;;;5.55;;
16029;SDS011;34770;49.272;11.070;2023-06-26T08:53:39;8.18;;;5.93;;
16029;SDS011;34770;49.272;11.070;2023-06-26T08:56:15;8.07;;;5.60;;
16029;SDS011;34770;49.272;11.070;2023-06-26T08:58:43;6.15;;;5.25;;
16029;SDS011;34770;49.272;11.070;2023-06-26T09:01:09;6.65;;;5.82;;
16029;SDS011;34770;49.272;11.070;2023-06-26T09:03:35;5.85;;;5.25;;
16029;SDS011;34770;49.272;11.070;2023-06-26T09:06:01;5.82;;;5.22;;
16029;SDS011;34770;49.272;11.070;2023-06-26T09:08:26;7.30;;;5.85;;
16029;SDS011;34770;49.272;11.070;2023-06-26T09:10:52;6.80;;;5.88;;
16029;SDS011;34770;49.272;11.070;2023-06-26T09:13:18;6.70;;;5.15;;
16029;SDS011;34770;49.272;11.070;2023-06-26T09:15:44;8.07;;;5.93;;
16029;SDS011;34770;49.272;11.070;2023-06-26T09:18:11;6.35;;;5.75;;
16029;SDS011;34770;49.272;11.070;2023-06-26T09:20:37;6.05;;;5.45;;
16029;SDS011;34770;49.272;11.070;2023-06-26T09:23:02;7.68;;;5.85;;
16029;SDS011;34770;49.272;11.070;2023-06-26T09:25:28;6.22;;;5.60;;
16029;SDS011;34770;49.272;11.070;2023-06-26T09:27:54;5.90;;;5.30;;
16029;SDS011;34770;49.272;11.070;2023-06-26T09:30:20;6.70;;;6.00;;
16029;SDS011;34770;49.272;11.070;2023-06-26T09:32:46;5.95;;;5.35;;
16029;SDS011;34770;49.272;11.070;2023-06-26T09:35:12;7.55;;;5.72;;
16029;SDS011;34770;49.272;11.070;2023-06-26T09:37:37;6.40;;;5.80;;
16029;SDS011;34770;49.272;11.070;2023-06-26T09:40:03;6.70;;;5.97;;
16029;SDS011;34770;49.272;11.070;2023-06-26T09:42:29;6.65;;;5.70;;
16029;SDS011;34770;49.272;11.070;2023-06-26T09:44:55;5.82;;;5.30;;
16029;SDS011;34770;49.272;11.070;2023-06-26T09:47:21;5.88;;;5.38;;
16029;SDS011;34770;49.272;11.070;2023-06-26T09:49:46;6.28;;;5.68;;
16029;SDS011;34770;49.272;11.070;2023-06-26T09:52:15;6.32;;;5.65;;
16029;SDS011;34770;49.272;11.070;2023-06-26T09:54:42;6.40;;;5.53;;
16029;SDS011;34770;49.272;11.070;2023-06-26T09:57:13;8.18;;;5.75;;
16029;SDS011;34770;49.272;11.070;2023-06-26T09:59:41;7.18;;;5.20;;
16029;SDS011;34770;49.272;11.070;2023-06-26T10:02:09;6.38;;;5.63;;
16029;SDS011;34770;49.272;11.070;2023-06-26T10:04:35;6.60;;;5.80;;
16029;SDS011;34770;49.272;11.070;2023-06-26T10:07:01;6.13;;;4.82;;
16029;SDS011;34770;49.272;11.070;2023-06-26T10:09:29;7.55;;;6.07;;
16029;SDS011;34770;49.272;11.070;2023-06-26T10:12:02;5.68;;;4.78;;
16029;SDS011;34770;49.272;11.070;2023-06-26T10:14:32;6.93;;;5.20;;
16029;SDS011;34770;49.272;11.070;2023-06-26T10:17:01;6.78;;;5.35;;
16029;SDS011;34770;49.272;11.070;2023-06-26T10:19:35;5.70;;;4.78;;
16029;SDS011;34770;49.272;11.070;2023-06-26T10:22:04;6.38;;;5.40;;
16029;SDS011;34770;49.272;11.070;2023-06-26T10:24:31;6.07;;;5.05;;
16029;SDS011;34770;49.272;11.070;2023-06-26T10:27:43;9.95;;;5.72;;
16029;SDS011;34770;49.272;11.070;2023-06-26T10:29:54;5.82;;;4.88;;
16029;SDS011;34770;49.272;11.070;2023-06-26T10:32:22;6.93;;;5.32;;
16029;SDS011;34770;49.272;11.070;2023-06-26T10:34:49;6.15;;;5.10;;
16029;SDS011;34770;49.272;11.070;2023-06-26T10:37:15;8.85;;;4.75;;
16029;SDS011;34770;49.272;11.070;2023-06-26T10:39:47;8.40;;;5.28;;
16029;SDS011;34770;49.272;11.070;2023-06-26T10:42:17;7.78;;;5.63;;
16029;SDS011;34770;49.272;11.070;2023-06-26T10:44:44;5.97;;;5.03;;
16029;SDS011;34770;49.272;11.070;2023-06-26T10:47:11;6.20;;;5.10;;
16029;SDS011;34770;49.272;11.070;2023-06-26T10:49:54;6.40;;;5.28;;
16029;SDS011;34770;49.272;11.070;2023-06-26T10:52:19;5.53;;;4.70;;
16029;SDS011;34770;49.272;11.070;2023-06-26T10:54:44;7.82;;;5.57;;
16029;SDS011;34770;49.272;11.070;2023-06-26T10:57:10;5.32;;;4.82;;
16029;SDS011;34770;49.272;11.070;2023-06-26T10:59:38;6.07;;;5.10;;
16029;SDS011;34770;49.272;11.070;2023-06-26T11:02:05;7.00;;;4.85;;
16029;SDS011;34770;49.272;11.070;2023-06-26T11:07:21;5.75;;;5.10;;
16029;SDS011;34770;49.272;11.070;2023-06-26T11:12:39;5.30;;;4.80;;
16029;SDS011;34770;49.272;11.070;2023-06-26T11:17:39;5.07;;;4.57;;
16029;SDS011;34770;49.272;11.070;2023-06-26T11:20:06;5.30;;;4.38;;
16029;SDS011;34770;49.272;11.070;2023-06-26T11:22:37;5.03;;;4.50;;
16029;SDS011;34770;49.272;11.070;2023-06-26T11:25:04;5.15;;;4.63;;
16029;SDS011;34770;49.272;11.070;2023-06-26T11:27:32;5.15;;;4.63;;
16029;SDS011;34770;49.272;11.070;2023-06-26T11:30:08;4.13;;;3.67;;
16029;SDS011;34770;49.272;11.070;2023-06-26T11:32:47;4.22;;;3.83;;
16029;SDS011;34770;49.272;11.070;2023-06-26T11:35:12;5.72;;;4.22;;
16029;SDS011;34770;49.272;11.070;2023-06-26T11:37:38;5.80;;;4.40;;
16029;SDS011;34770;49.272;11.070;2023-06-26T11:40:16;4.72;;;3.85;;
16029;SDS011;34770;49.272;11.070;2023-06-26T11:42:42;5.38;;;3.83;;
16029;SDS011;34770;49.272;11.070;2023-06-26T11:45:19;6.30;;;4.60;;
16029;SDS011;34770;49.272;11.070;2023-06-26T11:47:45;6.22;;;3.95;;
16029;SDS011;34770;49.272;11.070;2023-06-26T11:50:17;5.47;;;3.78;;
16029;SDS011;34770;49.272;11.070;2023-06-26T11:52:43;4.15;;;3.75;;
16029;SDS011;34770;49.272;11.070;2023-06-26T11:55:09;4.85;;;3.78;;
16029;SDS011;34770;49.272;11.070;2023-06-26T11:57:35;4.97;;;4.15;;
16029;SDS011;34770;49.272;11.070;2023-06-26T12:00:14;4.40;;;3.92;;
16029;SDS011;34770;49.272;11.070;2023-06-26T12:02:41;3.80;;;3.42;;
16029;SDS011;34770;49.272;11.070;2023-06-26T12:05:07;6.20;;;3.80;;
16029;SDS011;34770;49.272;11.070;2023-06-26T12:07:33;3.83;;;3.38;;
16029;SDS011;34770;49.272;11.070;2023-06-26T12:10:00;4.18;;;3.78;;
16029;SDS011;34770;49.272;11.070;2023-06-26T12:12:26;4.03;;;3.67;;
16029;SDS011;34770;49.272;11.070;2023-06-26T12:14:52;5.32;;;3.63;;
16029;SDS011;34770;49.272;11.070;2023-06-26T12:17:17;4.60;;;4.00;;
16029;SDS011;34770;49.272;11.070;2023-06-26T12:19:47;4.47;;;3.70;;
16029;SDS011;34770;49.272;11.070;2023-06-26T12:22:13;4.15;;;3.40;;
16029;SDS011;34770;49.272;11.070;2023-06-26T12:24:39;3.95;;;3.55;;
16029;SDS011;34770;49.272;11.070;2023-06-26T12:27:11;4.03;;;3.60;;
16029;SDS011;34770;49.272;11.070;2023-06-26T12:29:39;3.63;;;3.33;;
16029;SDS011;34770;49.272;11.070;2023-06-26T12:32:09;5.45;;;3.92;;
16029;SDS011;34770;49.272;11.070;2023-06-26T12:34:36;5.30;;;3.85;;
16029;SDS011;34770;49.272;11.070;2023-06-26T12:37:04;4.65;;;3.90;;
16029;SDS011;34770;49.272;11.070;2023-06-26T12:39:44;4.15;;;3.75;;
16029;SDS011;34770;49.272;11.070;2023-06-26T12:42:15;6.78;;;4.28;;
16029;SDS011;34770;49.272;11.070;2023-06-26T12:44:41;5.05;;;3.75;;
16029;SDS011;34770;49.272;11.070;2023-06-26T12:47:07;6.95;;;4.32;;
16029;SDS011;34770;49.272;11.070;2023-06-26T12:49:33;5.78;;;4.20;;
16029;SDS011;34770;49.272;11.070;2023-06-26T12:52:00;5.63;;;4.80;;
16029;SDS011;34770;49.272;11.070;2023-06-26T12:54:27;5.63;;;4.20;;
16029;SDS011;34770;49.272;11.070;2023-06-26T12:56:53;4.72;;;3.95;;
16029;SDS011;34770;49.272;11.070;2023-06-26T12:59:19;4.32;;;3.72;;
16029;SDS011;34770;49.272;11.070;2023-06-26T13:01:48;4.78;;;4.13;;
16029;SDS011;34770;49.272;11.070;2023-06-26T13:04:14;4.68;;;4.28;;
16029;SDS011;34770;49.272;11.070;2023-06-26T13:06:40;4.90;;;4.40;;
16029;SDS011;34770;49.272;11.070;2023-06-26T13:09:05;5.47;;;4.25;;
16029;SDS011;34770;49.272;11.070;2023-06-26T13:11:31;5.40;;;4.15;;
16029;SDS011;34770;49.272;11.070;2023-06-26T13:13:57;8.05;;;4.60;;
16029;SDS011;34770;49.272;11.070;2023-06-26T13:16:24;4.97;;;4.43;;
16029;SDS011;34770;49.272;11.070;2023-06-26T13:18:49;7.88;;;4.93;;
16029;SDS011;34770;49.272;11.070;2023-06-26T13:21:14;4.57;;;4.18;;
16029;SDS011;34770;49.272;11.070;2023-06-26T13:23:42;7.85;;;5.13;;
16029;SDS011;34770;49.272;11.070;2023-06-26T13:26:08;5.20;;;4.68;;
16029;SDS011;34770;49.272;11.070;2023-06-26T13:28:33;5.80;;;5.00;;
16029;SDS011;34770;49.272;11.070;2023-06-26T13:30:59;5.32;;;4.82;;
16029;SDS011;34770;49.272;11.070;2023-06-26T13:33:24;5.93;;;5.00;;
16029;SDS011;34770;49.272;11.070;2023-06-26T13:35:52;7.93;;;5.07;;
16029;SDS011;34770;49.272;11.070;2023-06-26T13:38:21;5.40;;;4.90;;
16029;SDS011;34770;49.272;11.070;2023-06-26T13:40:53;6.60;;;4.88;;
16029;SDS011;34770;49.272;11.070;2023-06-26T13:43:22;6.13;;;4.63;;
16029;SDS011;34770;49.272;11.070;2023-06-26T13:45:48;6.72;;;4.88;;
16029;SDS011;34770;49.272;11.070;2023-06-26T13:48:14;8.73;;;5.00;;
16029;SDS011;34770;49.272;11.070;2023-06-26T13:50:40;6.60;;;5.10;;
16029;SDS011;34770;49.272;11.070;2023-06-26T13:53:05;5.93;;;5.32;;
16029;SDS011;34770;49.272;11.070;2023-06-26T13:55:31;5.50;;;4.93;;
16029;SDS011;34770;49.272;11.070;2023-06-26T13:57:57;7.05;;;4.75;;
16029;SDS011;34770;49.272;11.070;2023-06-26T14:00:23;7.18;;;4.90;;
16029;SDS011;34770;49.272;11.070;2023-06-26T14:02:49;5.95;;;5.35;;
16029;SDS011;34770;49.272;11.070;2023-06-26T14:05:14;6.53;;;4.78;;
16029;SDS011;34770;49.272;11.070;2023-06-26T14:07:40;7.43;;;5.25;;
16029;SDS011;34770;49.272;11.070;2023-06-26T14:10:06;6.20;;;4.53;;
16029;SDS011;34770;49.272;11.070;2023-06-26T14:12:32;7.07;;;4.72;;
16029;SDS011;34770;49.272;11.070;2023-06-26T14:14:58;6.25;;;4.68;;
16029;SDS011;34770;49.272;11.070;2023-06-26T14:17:24;5.50;;;5.00;;
16029;SDS011;34770;49.272;11.070;2023-06-26T14:19:51;4.95;;;4.50;;
16029;SDS011;34770;49.272;11.070;2023-06-26T14:22:17;6.20;;;5.10;;
16029;SDS011;34770;49.272;11.070;2023-06-26T14:24:42;5.72;;;5.20;;
16029;SDS011;34770;49.272;11.070;2023-06-26T14:27:08;5.82;;;5.22;;
16029;SDS011;34770;49.272;11.070;2023-06-26T14:29:33;5.57;;;5.07;;
16029;SDS011;34770;49.272;11.070;2023-06-26T14:31:59;6.03;;;5.03;;
16029;SDS011;34770;49.272;11.070;2023-06-26T14:34:24;7.95;;;5.35;;
16029;SDS011;34770;49.272;11.070;2023-06-26T14:36:49;6.07;;;5.47;;
16029;SDS011;34770;49.272;11.070;2023-06-26T14:39:15;6.30;;;5.35;;
16029;SDS011;34770;49.272;11.070;2023-06-26T14:41:41;10.05;;;5.80;;
16029;SDS011;34770;49.272;11.070;2023-06-26T14:44:07;6.68;;;6.05;;
16029;SDS011;34770;49.272;11.070;2023-06-26T14:46:34;8.50;;;5.30;;
16029;SDS011;34770;49.272;11.070;2023-06-26T14:49:00;6.47;;;5.65;;
16029;SDS011;34770;49.272;11.070;2023-06-26T14:51:25;7.22;;;5.65;;
16029;SDS011;34770;49.272;11.070;2023-06-26T14:53:51;6.82;;;5.72;;